createdAt,value
2023-05-21T00:03:02.074Z,10.65
2023-05-21T00:07:04.173Z,11.40
2023-05-21T00:11:06.640Z,10.65
2023-05-21T00:15:08.933Z,11.52
2023-05-21T00:19:10.702Z,11.48
2023-05-21T00:23:12.748Z,11.12
2023-05-21T00:27:14.513Z,12.13
2023-05-21T00:31:17.156Z,11.65
2023-05-21T00:35:19.515Z,11.48
2023-05-21T00:39:21.383Z,11.55
2023-05-21T00:43:26.178Z,12.60
2023-05-21T00:47:29.690Z,12.30
2023-05-21T00:51:31.594Z,12.30
2023-05-21T00:55:33.878Z,12.63
2023-05-21T00:59:35.787Z,12.32
2023-05-21T01:03:38.503Z,11.32
2023-05-21T01:07:41.777Z,11.75
2023-05-21T01:11:46.676Z,11.25
2023-05-21T01:15:50.040Z,11.27
2023-05-21T01:19:52.766Z,11.35
2023-05-21T01:23:54.574Z,11.45
2023-05-21T01:27:56.317Z,12.13
2023-05-21T01:32:34.150Z,11.75
2023-05-21T01:36:43.539Z,12.48
2023-05-21T01:40:54.385Z,12.30
2023-05-21T01:44:59.409Z,11.60
2023-05-21T01:49:01.869Z,11.23
2023-05-21T01:53:12.962Z,10.95
2023-05-21T01:57:14.728Z,11.60
2023-05-21T02:01:16.490Z,10.70
2023-05-21T02:05:18.661Z,11.45
2023-05-21T02:09:20.896Z,11.07
2023-05-21T02:13:25.829Z,11.25
2023-05-21T02:17:31.266Z,10.38
2023-05-21T02:21:33.042Z,10.60
2023-05-21T02:25:34.990Z,9.43
2023-05-21T02:29:37.060Z,10.50
2023-05-21T02:33:41.307Z,10.13
2023-05-21T02:37:43.973Z,9.40
2023-05-21T02:41:47.529Z,9.27
2023-05-21T02:45:51.270Z,9.40
2023-05-21T02:49:53.990Z,8.93
2023-05-21T02:53:55.860Z,9.20
2023-05-21T02:57:57.591Z,9.02
2023-05-21T03:01:59.312Z,9.38
2023-05-21T03:06:01.559Z,8.95
2023-05-21T03:10:03.402Z,9.38
2023-05-21T03:14:06.285Z,10.13
2023-05-21T03:18:08.111Z,9.93
2023-05-21T03:22:11.255Z,9.85
2023-05-21T03:26:13.984Z,9.63
2023-05-21T03:30:15.861Z,9.40
2023-05-21T03:34:20.017Z,8.65
2023-05-21T03:38:21.716Z,9.48
2023-05-21T03:42:23.510Z,9.05
2023-05-21T03:46:26.213Z,9.50
2023-05-21T03:50:28.460Z,9.40
2023-05-21T03:54:30.205Z,10.00
2023-05-21T03:58:32.786Z,9.07
2023-05-21T04:02:34.771Z,9.40
2023-05-21T04:06:36.819Z,9.65
2023-05-21T04:10:38.532Z,9.57
2023-05-21T04:14:40.347Z,9.38
2023-05-21T04:18:44.852Z,9.32
2023-05-21T04:22:47.382Z,8.95
2023-05-21T04:26:49.863Z,9.15
2023-05-21T04:30:51.651Z,9.63
2023-05-21T04:34:53.407Z,8.38
2023-05-21T04:38:55.701Z,9.88
2023-05-21T04:42:58.076Z,9.30
2023-05-21T04:47:00.461Z,9.70
2023-05-21T04:51:05.924Z,9.02
2023-05-21T04:55:08.850Z,9.23
2023-05-21T04:59:10.744Z,9.57
2023-05-21T05:03:13.298Z,10.00
2023-05-21T05:07:15.517Z,9.25
2023-05-21T05:11:17.316Z,9.10
2023-05-21T05:15:19.124Z,9.02
2023-05-21T05:19:20.985Z,9.10
2023-05-21T05:23:22.731Z,8.75
2023-05-21T05:27:24.416Z,9.15
2023-05-21T05:31:26.201Z,8.85
2023-05-21T05:35:27.965Z,8.93
2023-05-21T05:39:29.851Z,9.10
2023-05-21T05:43:31.809Z,8.57
2023-05-21T05:47:33.633Z,9.55
2023-05-21T05:51:36.051Z,8.27
2023-05-21T05:55:38.248Z,9.52
2023-05-21T05:59:40.266Z,8.45
2023-05-21T06:03:42.113Z,9.48
2023-05-21T06:07:43.963Z,9.77
2023-05-21T06:11:45.706Z,9.75
2023-05-21T06:15:47.448Z,8.60
2023-05-21T06:19:49.230Z,9.45
2023-05-21T06:23:50.982Z,8.95
2023-05-21T06:27:52.734Z,9.30
2023-05-21T06:31:54.424Z,8.73
2023-05-21T06:35:56.251Z,9.82
2023-05-21T06:39:57.969Z,8.98
2023-05-21T06:43:59.830Z,8.73
2023-05-21T06:48:01.593Z,9.35
2023-05-21T06:52:03.381Z,9.32
2023-05-21T06:56:05.522Z,8.70
2023-05-21T07:00:09.359Z,8.57
2023-05-21T07:04:11.183Z,8.88
2023-05-21T07:08:13.006Z,8.98
2023-05-21T07:12:14.725Z,9.05
2023-05-21T07:16:17.749Z,8.75
2023-05-21T07:20:19.621Z,9.55
2023-05-21T07:24:21.352Z,8.95
2023-05-21T07:28:23.179Z,9.40
2023-05-21T07:32:26.684Z,9.52
2023-05-21T07:36:29.516Z,16.70
2023-05-21T07:40:31.228Z,10.45
2023-05-21T07:44:33.003Z,10.50
2023-05-21T07:48:35.648Z,10.55
2023-05-21T07:52:37.676Z,10.40
2023-05-21T07:56:39.448Z,10.40
2023-05-21T08:00:47.263Z,12.35
2023-05-21T08:04:49.122Z,10.88
2023-05-21T08:08:50.893Z,11.52
2023-05-21T08:12:52.611Z,11.12
2023-05-21T08:16:54.687Z,10.38
2023-05-21T08:20:56.645Z,11.88
2023-05-21T08:24:58.402Z,11.12
2023-05-21T08:29:00.167Z,10.70
2023-05-21T08:33:02.386Z,10.77
2023-05-21T08:37:04.483Z,10.95
2023-05-21T08:41:07.728Z,10.80
2023-05-21T08:45:13.086Z,10.40
2023-05-21T08:49:18.594Z,11.70
2023-05-21T08:53:28.280Z,11.05
2023-05-21T08:57:31.847Z,12.30
2023-05-21T09:01:34.510Z,11.85
2023-05-21T09:05:42.911Z,11.50
2023-05-21T09:10:12.253Z,12.57
2023-05-21T09:14:15.515Z,11.68
2023-05-21T09:18:17.414Z,14.15
2023-05-21T09:22:23.506Z,12.82
2023-05-21T09:26:26.504Z,11.30
2023-05-21T09:30:30.184Z,11.45
2023-05-21T09:34:36.656Z,11.02
2023-05-21T09:38:38.601Z,12.30
2023-05-21T09:42:41.419Z,12.00
2023-05-21T09:46:43.228Z,11.00
2023-05-21T09:50:45.799Z,12.95
2023-05-21T09:54:47.527Z,11.73
2023-05-21T09:58:55.067Z,11.93
2023-05-21T10:03:00.845Z,12.48
2023-05-21T10:07:02.711Z,12.37
2023-05-21T10:11:07.242Z,12.50
2023-05-21T10:15:11.397Z,12.37
2023-05-21T10:19:15.608Z,12.82
2023-05-21T10:23:18.648Z,11.65
2023-05-21T10:27:22.570Z,12.50
2023-05-21T10:31:26.562Z,12.43
2023-05-21T10:35:29.633Z,14.48
2023-05-21T10:39:33.622Z,14.90
2023-05-21T10:44:14.900Z,14.40
2023-05-21T10:48:43.573Z,13.68
2023-05-21T10:53:12.933Z,13.32
2023-05-21T10:57:14.674Z,13.90
2023-05-21T11:01:19.276Z,14.35
2023-05-21T11:05:51.551Z,13.23
2023-05-21T11:09:53.337Z,13.32
2023-05-21T11:13:55.157Z,14.05
2023-05-21T11:17:57.090Z,13.85
2023-05-21T11:21:58.982Z,13.18
2023-05-21T11:26:03.518Z,14.00
2023-05-21T11:30:09.100Z,12.50
2023-05-21T11:34:14.873Z,10.85
2023-05-21T11:38:18.039Z,12.45
2023-05-21T11:42:39.260Z,13.40
2023-05-21T11:46:41.220Z,11.02
2023-05-21T11:50:43.084Z,12.93
2023-05-21T11:54:48.321Z,12.37
2023-05-21T11:58:50.050Z,14.13
2023-05-21T12:02:52.851Z,13.62
2023-05-21T12:06:58.332Z,12.88
2023-05-21T12:11:01.690Z,13.75
2023-05-21T12:15:04.195Z,13.55
2023-05-21T12:19:06.723Z,14.70
2023-05-21T12:23:08.538Z,13.82
2023-05-21T12:27:13.161Z,13.38
2023-05-21T12:31:16.136Z,11.38
2023-05-21T12:35:22.744Z,12.80
2023-05-21T12:39:24.901Z,11.25
2023-05-21T12:43:32.075Z,12.60
2023-05-21T12:47:34.505Z,11.38
2023-05-21T12:51:40.044Z,12.65
2023-05-21T12:55:41.778Z,11.53
2023-05-21T12:59:52.262Z,13.50
2023-05-21T13:03:54.031Z,14.07
2023-05-21T13:07:55.804Z,13.43
2023-05-21T13:11:57.557Z,11.40
2023-05-21T13:16:01.604Z,12.35
2023-05-21T13:20:18.209Z,16.35
2023-05-21T13:24:20.001Z,12.65
2023-05-21T13:28:23.562Z,12.37
2023-05-21T13:32:25.517Z,14.40
2023-05-21T13:36:27.327Z,13.35
2023-05-21T13:40:29.150Z,14.10
2023-05-21T13:44:33.257Z,14.05
2023-05-21T13:48:35.276Z,14.55
2023-05-21T13:52:38.122Z,14.10
2023-05-21T13:56:39.967Z,15.02
2023-05-21T14:00:42.989Z,13.15
2023-05-21T14:04:45.289Z,12.75
2023-05-21T14:08:47.088Z,12.48
2023-05-21T14:12:48.876Z,13.07
2023-05-21T14:16:51.499Z,11.95
2023-05-21T14:20:53.804Z,11.95
2023-05-21T14:24:56.081Z,11.82
2023-05-21T14:28:57.996Z,11.32
2023-05-21T14:32:59.831Z,12.50
2023-05-21T14:37:01.608Z,12.05
2023-05-21T14:41:03.420Z,12.32
2023-05-21T14:45:18.012Z,10.45
2023-05-21T14:49:20.774Z,10.43
2023-05-21T14:53:22.609Z,10.68
2023-05-21T14:57:24.353Z,9.25
2023-05-21T15:01:26.166Z,10.68
2023-05-21T15:05:29.373Z,11.77
2023-05-21T15:09:31.130Z,11.68
2023-05-21T15:13:33.033Z,12.27
2023-05-21T15:17:35.843Z,11.77
2023-05-21T15:21:38.483Z,12.63
2023-05-21T15:25:40.309Z,12.48
2023-05-21T15:29:42.071Z,11.57
2023-05-21T15:33:43.864Z,12.80
2023-05-21T15:37:46.074Z,12.35
2023-05-21T15:41:47.902Z,13.55
2023-05-21T15:45:49.624Z,11.55
2023-05-21T15:49:51.623Z,11.43
2023-05-21T15:53:53.516Z,11.50
2023-05-21T15:57:55.526Z,12.32
2023-05-21T16:01:57.589Z,12.50
2023-05-21T16:05:59.695Z,12.32
2023-05-21T16:10:01.576Z,12.25
2023-05-21T16:14:03.302Z,12.20
2023-05-21T16:18:05.148Z,12.68
2023-05-21T16:26:09.963Z,12.48
2023-05-21T16:30:12.152Z,13.70
2023-05-21T16:34:13.897Z,12.30
2023-05-21T16:38:16.169Z,11.93
2023-05-21T16:42:17.925Z,11.93
2023-05-21T16:46:20.009Z,10.93
2023-05-21T16:50:21.879Z,11.80
2023-05-21T16:54:23.663Z,12.60
2023-05-21T16:58:25.556Z,11.68
2023-05-21T17:02:27.454Z,11.55
2023-05-21T17:06:29.218Z,11.93
2023-05-21T17:10:33.090Z,13.27
2023-05-21T17:14:36.244Z,12.23
2023-05-21T17:18:39.192Z,11.10
2023-05-21T17:22:41.021Z,11.15
2023-05-21T17:26:42.902Z,11.48
2023-05-21T17:30:45.593Z,11.52
2023-05-21T17:34:48.135Z,11.75
2023-05-21T17:38:50.728Z,28.62
2023-05-21T17:42:52.790Z,12.00
2023-05-21T17:46:56.401Z,12.25
2023-05-21T17:50:58.510Z,12.00
2023-05-21T17:55:01.159Z,11.82
2023-05-21T17:59:02.893Z,11.73
2023-05-21T18:03:04.770Z,11.90
2023-05-21T18:07:07.168Z,12.13
2023-05-21T18:11:08.907Z,12.23
2023-05-21T18:15:10.828Z,13.30
2023-05-21T18:19:13.013Z,12.70
2023-05-21T18:23:14.853Z,12.48
2023-05-21T18:27:16.632Z,12.48
2023-05-21T18:31:19.058Z,12.93
2023-05-21T18:35:20.882Z,11.95
2023-05-21T18:39:24.620Z,12.05
2023-05-21T18:43:26.493Z,12.23
2023-05-21T18:47:28.277Z,12.02
2023-05-21T18:51:30.065Z,13.43
2023-05-21T18:55:31.974Z,13.23
2023-05-21T18:59:33.791Z,13.57
2023-05-21T19:03:35.608Z,13.23
2023-05-21T19:07:37.378Z,13.23
2023-05-21T19:11:39.266Z,13.77
2023-05-21T19:15:41.213Z,14.73
2023-05-21T19:19:42.996Z,13.75
2023-05-21T19:23:52.487Z,14.30
2023-05-21T19:27:56.332Z,14.27
2023-05-21T19:31:59.057Z,14.52
2023-05-21T19:36:00.907Z,13.82
2023-05-21T19:40:02.702Z,13.43
2023-05-21T19:44:04.454Z,14.32
2023-05-21T19:48:06.809Z,14.85
2023-05-21T19:52:10.267Z,17.00
2023-05-21T19:56:12.020Z,17.02
2023-05-21T20:00:14.461Z,18.15
2023-05-21T20:04:16.335Z,19.20
2023-05-21T20:08:18.166Z,19.58
2023-05-21T20:12:19.899Z,22.62
2023-05-21T20:16:23.200Z,23.38
2023-05-21T20:20:26.647Z,25.83
2023-05-21T20:24:28.451Z,26.48
2023-05-21T20:28:30.291Z,27.98
2023-05-21T20:32:32.075Z,27.80
2023-05-21T20:36:35.108Z,29.15
2023-05-21T20:40:37.090Z,28.83
2023-05-21T20:44:39.517Z,30.50
2023-05-21T20:48:41.736Z,29.25
2023-05-21T20:52:46.249Z,29.95
2023-05-21T20:56:51.030Z,33.20
2023-05-21T21:00:55.060Z,30.37
2023-05-21T21:04:57.823Z,33.60
2023-05-21T21:08:59.565Z,35.08
2023-05-21T21:13:01.687Z,34.92
2023-05-21T21:17:03.483Z,37.72
2023-05-21T21:21:06.163Z,35.65
2023-05-21T21:25:08.379Z,37.90
2023-05-21T21:29:10.273Z,36.78
2023-05-21T21:33:14.100Z,40.45
2023-05-21T21:37:16.476Z,42.72
2023-05-21T21:41:20.179Z,40.60
2023-05-21T21:45:22.069Z,40.70
2023-05-21T21:49:23.760Z,40.67
2023-05-21T21:53:25.540Z,38.05
2023-05-21T21:57:29.342Z,38.08
2023-05-21T22:01:31.242Z,36.33
2023-05-21T22:05:33.901Z,36.80
2023-05-21T22:09:35.739Z,35.08
2023-05-21T22:13:37.664Z,31.95
2023-05-21T22:17:40.097Z,34.83
2023-05-21T22:21:42.153Z,34.92
2023-05-21T22:25:43.939Z,36.92
2023-05-21T22:29:45.634Z,39.00
2023-05-21T22:33:47.373Z,39.22
2023-05-21T22:37:49.131Z,40.35
2023-05-21T22:41:50.899Z,39.25
2023-05-21T22:45:52.728Z,35.85
2023-05-21T22:49:54.489Z,38.25
2023-05-21T22:53:56.220Z,37.10
2023-05-21T22:57:57.950Z,38.80
2023-05-21T23:01:59.952Z,42.47
2023-05-21T23:06:01.747Z,42.30
2023-05-21T23:10:03.946Z,42.55
2023-05-21T23:14:05.679Z,41.20
2023-05-21T23:18:08.352Z,38.08
2023-05-21T23:22:10.536Z,37.90
2023-05-21T23:26:12.287Z,37.13
2023-05-21T23:30:14.180Z,35.97
2023-05-21T23:34:16.045Z,34.30
2023-05-21T23:38:17.805Z,34.20
2023-05-21T23:42:19.718Z,29.37
2023-05-21T23:46:21.500Z,31.20
2023-05-21T23:50:24.699Z,28.77
2023-05-21T23:54:26.895Z,27.08
2023-05-21T23:58:28.619Z,26.20
